Roosevelt, Minnesota
Current Conditions -  °F | °C
As of 4:14 PM on Sunday 23 Nov 2014 (Local Time) from KRRT Reporting Station
Overcast Overcast  
Wind Chill: 26°   Ceiling: 1000
Heat Index: 34°   Visibility: 10mi
Dew Point: 28°   Wind: 9mph
Humidity: 81%   Direction: 250°WSW
Pressure: 29.41"   Gusts: NA
Location:  48.8°N, 95.1°W
Report Text: KRRT 232214Z AUTO 25008KT 10SM OVC010 01/M02 A2941 RMK AO2
Loading
Personal Weather Stations






























Interactive Weather Map New forecast layout! Learn more

10-Day Weather Forecast

Advertisements
Track Severe Weather on mobile